Time;durP1;ratioP1;P1;durP2;ratioP2;P2;SDS_P1;SDS_P2;PMS_P1;PMS_P2;Temp;Humidity;BMP_temperature;BMP_pressure;BME280_temperature;BME280_humidity;BME280_pressure;Samples;Min_cycle;Max_cycle;Signal;HPM_P1;HPM_P2
2022/02/12 00:00:11;;;;;;;9.95;5.78;;;1.80;99.90;;;;;;4955369;28;20117;-81
2022/02/12 00:02:37;;;;;;;12.60;8.18;;;2.00;99.90;;;;;;4955744;28;20042;-81
2022/02/12 00:05:07;;;;;;;10.48;7.95;;;2.10;99.90;;;;;;4955252;29;20383;-82
2022/02/12 00:07:34;;;;;;;9.70;6.13;;;2.30;99.90;;;;;;4955672;28;20042;-85
2022/02/12 00:09:59;;;;;;;11.95;5.93;;;2.40;99.90;;;;;;4955190;28;20043;-83
2022/02/12 00:12:25;;;;;;;8.50;5.93;;;2.20;99.90;;;;;;4955331;28;20023;-83
2022/02/12 00:14:52;;;;;;;9.90;6.85;;;2.20;99.90;;;;;;4955881;28;20023;-82
2022/02/12 00:17:18;;;;;;;12.52;6.65;;;1.60;99.90;;;;;;4955123;28;20056;-82
2022/02/12 00:19:46;;;;;;;10.77;6.68;;;1.50;99.90;;;;;;4954256;28;20155;-83
2022/02/12 00:22:16;;;;;;;13.25;6.68;;;1.70;99.90;;;;;;4955049;28;20046;-83
2022/02/12 00:24:41;;;;;;;9.68;6.40;;;1.90;99.90;;;;;;4955222;28;20031;-84
2022/02/12 00:27:11;;;;;;;13.18;7.00;;;2.00;99.90;;;;;;4955023;28;20389;-82
2022/02/12 00:29:36;;;;;;;10.52;6.80;;;2.00;99.90;;;;;;4940546;28;20415;-84
2022/02/12 00:32:03;;;;;;;9.32;6.78;;;2.00;99.90;;;;;;4954512;29;20027;-81
2022/02/12 00:34:28;;;;;;;14.20;7.75;;;2.00;99.90;;;;;;4954909;28;20031;-84
2022/02/12 00:36:54;;;;;;;11.10;6.75;;;2.10;99.90;;;;;;4954868;28;20027;-84
2022/02/12 00:39:20;;;;;;;10.63;6.63;;;2.10;99.90;;;;;;4955067;28;20106;-84
2022/02/12 00:41:46;;;;;;;12.93;6.47;;;2.00;99.90;;;;;;4954998;28;20027;-84
2022/02/12 00:44:11;;;;;;;13.75;7.65;;;2.00;99.90;;;;;;4954393;28;20027;-83
2022/02/12 00:46:37;;;;;;;11.85;7.10;;;1.80;99.90;;;;;;4955066;28;20699;-84
2022/02/12 00:49:03;;;;;;;12.80;6.78;;;2.00;99.90;;;;;;4954444;28;20043;-84
2022/02/12 00:51:30;;;;;;;14.95;6.97;;;1.80;99.90;;;;;;4957262;28;20023;-83
2022/02/12 00:53:56;;;;;;;12.77;7.05;;;1.80;99.90;;;;;;4954651;28;20090;-84
2022/02/12 00:56:22;;;;;;;9.80;6.97;;;1.80;99.90;;;;;;4954970;28;20019;-83
2022/02/12 00:58:48;;;;;;;10.45;6.65;;;1.90;99.90;;;;;;4954124;29;20179;-84
2022/02/12 01:01:13;;;;;;;9.88;6.00;;;2.00;99.90;;;;;;4954014;28;20065;-84
2022/02/12 01:03:39;;;;;;;9.50;6.22;;;2.20;99.90;;;;;;4955010;28;20030;-83
2022/02/12 01:06:05;;;;;;;12.70;6.25;;;1.80;99.90;;;;;;4954872;28;20054;-83
2022/02/12 01:08:30;;;;;;;11.80;6.10;;;1.60;99.90;;;;;;4954088;28;20101;-84
2022/02/12 01:10:56;;;;;;;13.02;6.57;;;1.60;99.90;;;;;;4953596;29;20106;-84
2022/02/12 01:13:22;;;;;;;7.63;5.88;;;1.50;99.90;;;;;;4954354;28;20019;-84
2022/02/12 01:15:48;;;;;;;10.18;7.28;;;1.60;99.90;;;;;;4953972;28;20484;-84
2022/02/12 01:18:13;;;;;;;11.50;6.05;;;1.70;99.90;;;;;;4954633;28;20392;-84
2022/02/12 01:20:39;;;;;;;7.50;5.22;;;1.80;99.90;;;;;;4954519;28;20110;-84
2022/02/12 01:23:06;;;;;;;10.25;5.57;;;1.80;99.90;;;;;;4953531;29;20019;-84
2022/02/12 01:25:32;;;;;;;9.25;6.32;;;1.80;99.90;;;;;;4955716;28;20034;-84
2022/02/12 01:27:58;;;;;;;7.28;5.43;;;1.70;99.90;;;;;;4954616;28;20404;-84
2022/02/12 01:30:24;;;;;;;12.30;5.75;;;1.80;99.90;;;;;;4954218;28;20078;-84
2022/02/12 01:32:50;;;;;;;8.50;5.68;;;1.70;99.90;;;;;;4954250;28;20031;-82
2022/02/12 01:35:15;;;;;;;10.02;6.22;;;1.80;99.90;;;;;;4953837;28;20061;-84
2022/02/12 01:37:41;;;;;;;7.80;5.50;;;1.80;99.90;;;;;;4953762;28;20114;-84
2022/02/12 01:40:08;;;;;;;11.15;6.03;;;1.90;99.90;;;;;;4954269;28;20511;-84
2022/02/12 01:42:35;;;;;;;10.73;5.75;;;1.80;99.90;;;;;;4954380;28;20460;-84
2022/02/12 01:45:01;;;;;;;9.88;6.43;;;1.20;99.90;;;;;;4953948;28;20110;-84
2022/02/12 01:47:30;;;;;;;11.45;6.25;;;1.10;99.90;;;;;;4954266;28;20058;-83
2022/02/12 01:49:56;;;;;;;8.90;5.88;;;1.40;99.90;;;;;;4953634;29;20042;-84
2022/02/12 01:52:23;;;;;;;12.15;6.50;;;1.40;99.90;;;;;;4954288;28;20039;-84
2022/02/12 01:54:49;;;;;;;11.15;6.50;;;1.40;99.90;;;;;;4954062;28;20075;-84
2022/02/12 01:57:15;;;;;;;8.82;6.00;;;1.40;99.90;;;;;;4953869;28;20106;-84
2022/02/12 01:59:41;;;;;;;9.98;6.15;;;1.30;99.90;;;;;;4953996;28;20019;-84
2022/02/12 02:02:08;;;;;;;11.07;6.53;;;1.40;99.90;;;;;;4953134;28;20125;-84
2022/02/12 02:04:35;;;;;;;10.52;6.35;;;1.40;99.90;;;;;;4953994;28;20046;-83
2022/02/12 02:07:01;;;;;;;10.65;6.25;;;1.40;99.90;;;;;;4954099;28;20038;-83
2022/02/12 02:09:29;;;;;;;9.93;6.47;;;1.40;99.90;;;;;;4953616;28;20043;-83
2022/02/12 02:11:55;;;;;;;11.50;5.85;;;1.50;99.90;;;;;;4953907;28;20046;-84
2022/02/12 02:14:34;;;;;;;8.82;5.70;;;1.50;99.90;;;;;;4953478;28;20415;-84
2022/02/12 02:17:00;;;;;;;10.85;6.63;;;1.60;99.90;;;;;;4953196;29;20027;-84
2022/02/12 02:19:26;;;;;;;12.15;7.75;;;1.60;99.90;;;;;;4953651;28;20043;-84
2022/02/12 02:21:55;;;;;;;17.27;8.07;;;1.50;99.90;;;;;;4957230;28;20027;-85
2022/02/12 02:24:20;;;;;;;10.48;6.93;;;1.50;99.90;;;;;;4957210;28;20054;-84
2022/02/12 02:26:46;;;;;;;9.05;6.10;;;1.80;99.90;;;;;;4957955;28;20070;-84
2022/02/12 02:29:12;;;;;;;11.75;6.45;;;1.50;99.90;;;;;;4956305;28;20399;-84
2022/02/12 02:31:38;;;;;;;9.15;5.80;;;1.40;99.90;;;;;;4957305;28;20032;-84
2022/02/12 02:34:11;;;;;;;9.85;5.45;;;1.40;99.90;;;;;;4957327;28;20031;-83
2022/02/12 02:36:38;;;;;;;12.25;6.80;;;1.40;99.90;;;;;;4957606;28;20031;-83
2022/02/12 02:39:05;;;;;;;10.98;6.85;;;1.40;99.90;;;;;;4957116;28;20399;-83
2022/02/12 02:41:31;;;;;;;11.70;6.07;;;1.90;99.90;;;;;;4957195;28;20038;-84
2022/02/12 02:43:56;;;;;;;9.48;5.75;;;1.60;99.90;;;;;;4955984;29;20039;-84
2022/02/12 02:46:22;;;;;;;10.95;5.55;;;1.30;99.90;;;;;;4956821;28;20039;-83
2022/02/12 02:48:48;;;;;;;11.70;6.35;;;1.30;99.90;;;;;;4956698;28;20507;-84
2022/02/12 02:56:43;;;;;;;9.05;5.75;;;0.90;99.90;;;;;;4942578;28;20031;-84
2022/02/12 02:59:15;;;;;;;12.90;5.78;;;0.90;99.90;;;;;;4956187;28;20031;-83
2022/02/12 03:01:41;;;;;;;8.35;6.28;;;1.00;99.90;;;;;;4957990;28;20024;-84
2022/02/12 03:04:07;;;;;;;12.68;6.53;;;1.00;99.90;;;;;;4956789;28;20396;-84
2022/02/12 03:06:32;;;;;;;10.13;6.53;;;0.90;99.90;;;;;;4956374;28;20416;-84
2022/02/12 03:08:59;;;;;;;12.15;6.57;;;1.20;99.90;;;;;;4942041;29;20043;-84
2022/02/12 03:11:25;;;;;;;13.30;6.97;;;1.00;99.90;;;;;;4956627;28;20047;-84
2022/02/12 03:13:52;;;;;;;12.15;6.93;;;1.50;99.90;;;;;;4955696;29;20027;-84
2022/02/12 03:16:18;;;;;;;9.32;6.25;;;1.10;99.90;;;;;;4956671;28;20041;-84
2022/02/12 03:18:46;;;;;;;10.55;6.57;;;1.20;99.90;;;;;;4956131;28;20106;-83
2022/02/12 03:21:12;;;;;;;13.25;5.88;;;1.10;99.90;;;;;;4957954;28;20520;-84
2022/02/12 03:23:39;;;;;;;9.30;6.53;;;1.20;99.90;;;;;;4956334;28;20030;-83
2022/02/12 03:26:05;;;;;;;8.98;5.93;;;1.00;99.90;;;;;;4955348;29;20086;-83
2022/02/12 03:28:31;;;;;;;11.63;6.25;;;1.00;99.90;;;;;;4956228;28;20043;-84
2022/02/12 03:30:56;;;;;;;9.98;6.53;;;1.10;99.90;;;;;;4956306;28;20035;-84
2022/02/12 03:33:22;;;;;;;11.18;6.25;;;1.10;99.90;;;;;;4956070;28;20027;-84
2022/02/12 03:35:53;;;;;;;10.23;6.65;;;0.80;99.90;;;;;;4956129;28;20551;-84
2022/02/12 03:38:26;;;;;;;8.70;5.90;;;1.00;99.90;;;;;;4956105;28;20031;-84
2022/02/12 03:40:54;;;;;;;9.20;6.18;;;1.10;99.90;;;;;;4953561;29;20047;-84
2022/02/12 03:43:20;;;;;;;11.85;6.55;;;1.10;99.90;;;;;;4955914;28;20034;-83
2022/02/12 03:45:46;;;;;;;10.20;6.07;;;1.50;99.90;;;;;;4956296;28;20034;-83
2022/02/12 03:48:12;;;;;;;10.30;5.95;;;1.60;99.90;;;;;;4955705;28;20016;-84
2022/02/12 03:50:38;;;;;;;12.52;6.22;;;1.10;99.90;;;;;;4956006;28;20514;-84
2022/02/12 03:53:06;;;;;;;11.55;6.00;;;1.00;99.90;;;;;;4955078;29;20050;-84
2022/02/12 03:55:37;;;;;;;10.05;5.82;;;0.80;99.90;;;;;;4956509;28;20535;-83
2022/02/12 03:58:04;;;;;;;10.15;6.10;;;0.70;99.90;;;;;;4955996;28;20027;-82
2022/02/12 04:00:30;;;;;;;9.95;6.40;;;0.60;99.90;;;;;;4955802;28;20090;-84
2022/02/12 04:02:57;;;;;;;10.23;5.80;;;0.60;99.90;;;;;;4955596;28;20456;-83
2022/02/12 04:05:23;;;;;;;8.25;5.75;;;0.70;99.90;;;;;;4955694;28;20019;-84
2022/02/12 04:07:49;;;;;;;9.35;6.38;;;0.60;99.90;;;;;;4955290;29;20031;-84
2022/02/12 04:10:17;;;;;;;8.55;6.22;;;0.60;99.90;;;;;;4955080;28;20514;-84
2022/02/12 04:12:48;;;;;;;9.65;6.18;;;1.20;99.90;;;;;;4955246;28;20507;-84
2022/02/12 04:15:14;;;;;;;9.70;6.28;;;0.80;99.90;;;;;;4940867;29;20102;-84
2022/02/12 04:17:40;;;;;;;11.40;6.22;;;0.50;99.90;;;;;;4955401;28;20027;-84
2022/02/12 04:20:09;;;;;;;11.20;6.40;;;0.60;99.90;;;;;;4954492;28;20051;-84
2022/02/12 04:22:35;;;;;;;13.00;6.57;;;0.60;99.90;;;;;;4955291;28;20059;-84
2022/02/12 04:25:03;;;;;;;11.38;6.47;;;0.60;99.90;;;;;;4955476;28;20038;-84
2022/02/12 04:27:29;;;;;;;10.88;6.28;;;0.70;99.90;;;;;;4955259;28;20418;-84
2022/02/12 04:29:54;;;;;;;10.73;6.47;;;0.80;99.90;;;;;;4955099;28;20035;-83
2022/02/12 04:32:20;;;;;;;8.77;6.40;;;0.70;99.90;;;;;;4955232;28;20035;-83
2022/02/12 04:34:50;;;;;;;6.80;5.80;;;0.70;99.90;;;;;;4952270;29;20031;-84
2022/02/12 04:37:18;;;;;;;8.38;5.63;;;0.60;99.90;;;;;;4955201;28;20107;-84
2022/02/12 04:39:44;;;;;;;12.95;6.38;;;0.60;99.90;;;;;;4954558;28;20039;-84
2022/02/12 04:42:11;;;;;;;9.23;6.25;;;0.40;99.90;;;;;;4955099;28;20019;-84
2022/02/12 04:44:41;;;;;;;10.98;6.32;;;0.20;99.90;;;;;;4954649;28;20035;-83
2022/02/12 04:47:07;;;;;;;11.38;6.50;;;0.30;99.90;;;;;;4953968;28;20492;-84
2022/02/12 04:49:35;;;;;;;11.70;6.32;;;0.40;99.90;;;;;;4954529;28;20054;-82
2022/02/12 04:52:01;;;;;;;9.15;6.13;;;0.50;99.90;;;;;;4954689;28;20033;-83
2022/02/12 04:54:27;;;;;;;8.52;6.10;;;0.50;99.90;;;;;;4954365;28;20031;-82
2022/02/12 04:56:53;;;;;;;10.32;6.32;;;0.30;99.90;;;;;;4938916;29;20544;-83
2022/02/12 04:59:18;;;;;;;8.15;6.03;;;0.40;99.90;;;;;;4954811;28;20039;-82
2022/02/12 05:01:44;;;;;;;11.65;6.90;;;0.70;99.90;;;;;;4953929;28;20019;-82
2022/02/12 05:04:12;;;;;;;9.52;6.13;;;0.20;99.90;;;;;;4954732;28;20031;-83
2022/02/12 05:06:38;;;;;;;10.18;6.43;;;0.80;99.90;;;;;;4954458;28;20027;-83
2022/02/12 05:09:04;;;;;;;10.75;6.85;;;0.30;99.90;;;;;;4954292;28;20349;-83
2022/02/12 05:11:30;;;;;;;10.25;6.22;;;0.30;99.90;;;;;;4954786;28;20584;-83
2022/02/12 05:13:55;;;;;;;8.55;6.22;;;0.30;99.90;;;;;;4953777;29;20527;-83
2022/02/12 05:16:21;;;;;;;12.25;6.43;;;0.30;99.90;;;;;;4954631;28;20038;-83
2022/02/12 05:18:47;;;;;;;12.35;6.75;;;0.30;99.90;;;;;;4954301;28;20050;-82
2022/02/12 05:21:13;;;;;;;11.38;6.22;;;0.30;99.90;;;;;;4954128;28;20054;-82
2022/02/12 05:23:38;;;;;;;8.82;5.90;;;0.20;99.90;;;;;;4954110;28;20039;-83
2022/02/12 05:26:04;;;;;;;8.70;6.03;;;0.30;99.90;;;;;;4936435;29;20058;-83
2022/02/12 05:28:30;;;;;;;11.60;6.53;;;0.30;99.90;;;;;;4954248;28;20078;-82
2022/02/12 05:30:55;;;;;;;11.75;5.97;;;0.40;99.90;;;;;;4953927;28;20511;-83
2022/02/12 05:33:21;;;;;;;9.70;6.25;;;0.40;99.90;;;;;;4954214;28;20078;-83
2022/02/12 05:35:49;;;;;;;10.00;6.85;;;0.50;99.90;;;;;;4954512;28;20532;-83
2022/02/12 05:38:15;;;;;;;10.40;6.68;;;0.50;99.90;;;;;;4953576;28;20046;-83
2022/02/12 05:40:41;;;;;;;14.30;6.30;;;0.50;99.90;;;;;;4953846;28;20046;-83
2022/02/12 05:43:06;;;;;;;9.55;5.82;;;0.40;99.90;;;;;;4939487;29;20039;-83
2022/02/12 05:45:32;;;;;;;10.93;6.28;;;0.30;99.90;;;;;;4954099;28;20475;-83
2022/02/12 05:48:01;;;;;;;11.70;6.55;;;0.30;99.90;;;;;;4953985;28;20019;-82
2022/02/12 05:50:29;;;;;;;10.60;6.60;;;0.30;99.90;;;;;;4953686;28;20050;-82
2022/02/12 05:52:56;;;;;;;11.85;7.18;;;0.20;99.90;;;;;;4953598;29;20094;-81
2022/02/12 05:55:22;;;;;;;12.68;7.00;;;0.30;99.90;;;;;;4955295;28;20031;-83
2022/02/12 05:57:48;;;;;;;17.92;10.23;;;-0.10;99.90;;;;;;4957997;28;20020;-83
2022/02/12 06:00:14;;;;;;;16.05;8.10;;;0.00;99.90;;;;;;4957451;28;20028;-82
2022/02/12 06:02:40;;;;;;;15.30;7.90;;;0.10;99.90;;;;;;4957675;28;20117;-83
2022/02/12 06:05:05;;;;;;;13.07;7.68;;;0.00;99.90;;;;;;4956905;29;20128;-83
2022/02/12 06:07:31;;;;;;;11.10;6.97;;;0.00;99.90;;;;;;4958273;28;20126;-83
2022/02/12 06:09:57;;;;;;;13.30;6.88;;;-0.10;99.90;;;;;;4957454;28;20083;-83
2022/02/12 06:12:22;;;;;;;10.30;7.40;;;0.00;99.90;;;;;;4959166;28;20110;-83
2022/02/12 06:14:48;;;;;;;9.98;7.50;;;0.00;99.90;;;;;;4957495;28;20027;-83
2022/02/12 06:17:14;;;;;;;11.40;7.07;;;0.10;99.90;;;;;;4956484;28;20023;-83
2022/02/12 06:19:39;;;;;;;14.30;7.72;;;0.20;99.90;;;;;;4956892;28;20108;-83
2022/02/12 06:22:05;;;;;;;11.75;7.03;;;0.20;99.90;;;;;;4957120;28;20031;-82
2022/02/12 06:24:31;;;;;;;10.80;6.60;;;0.20;99.90;;;;;;4957687;28;20028;-83
2022/02/12 06:26:57;;;;;;;10.57;6.65;;;0.20;99.90;;;;;;4957682;28;20023;-82
2022/02/12 06:29:26;;;;;;;11.23;6.90;;;0.10;99.90;;;;;;4957169;28;20047;-82
2022/02/12 06:31:52;;;;;;;11.68;6.68;;;0.10;99.90;;;;;;4956399;29;20024;-82
2022/02/12 06:34:18;;;;;;;11.20;6.63;;;0.20;99.90;;;;;;4956972;28;20045;-82
2022/02/12 06:36:44;;;;;;;11.10;7.15;;;0.20;99.90;;;;;;4957107;28;20023;-82
2022/02/12 06:39:09;;;;;;;13.23;6.53;;;0.10;99.90;;;;;;4957652;28;20027;-82
2022/02/12 06:41:35;;;;;;;12.50;7.05;;;0.10;99.90;;;;;;4957383;28;20503;-82
2022/02/12 06:44:01;;;;;;;11.48;7.85;;;0.00;99.90;;;;;;4956023;29;20439;-82
2022/02/12 06:46:27;;;;;;;9.65;6.45;;;0.00;99.90;;;;;;4957201;28;20062;-82
2022/02/12 06:48:52;;;;;;;11.45;7.13;;;0.50;99.90;;;;;;4956487;28;20086;-81
2022/02/12 06:51:18;;;;;;;11.95;6.90;;;0.10;99.90;;;;;;4956846;28;20046;-82
2022/02/12 06:53:44;;;;;;;10.15;6.90;;;0.10;99.90;;;;;;4956963;28;20019;-83
2022/02/12 06:56:10;;;;;;;13.55;7.55;;;0.20;99.90;;;;;;4956187;28;20027;-82
2022/02/12 06:58:36;;;;;;;15.48;7.60;;;0.20;99.90;;;;;;4956809;28;20043;-80
2022/02/12 07:01:02;;;;;;;13.07;7.60;;;0.10;99.90;;;;;;4956915;28;20036;-80
2022/02/12 07:03:33;;;;;;;11.32;7.40;;;0.30;99.90;;;;;;4955356;28;20414;-81
2022/02/12 07:05:59;;;;;;;10.60;7.22;;;0.20;99.90;;;;;;4956293;28;20032;-82
2022/02/12 07:08:28;;;;;;;12.00;8.20;;;0.80;99.90;;;;;;4956195;28;20066;-80
2022/02/12 07:10:54;;;;;;;16.80;8.95;;;0.50;99.90;;;;;;4955650;29;20030;-81
2022/02/12 07:13:20;;;;;;;12.48;8.05;;;1.00;99.90;;;;;;4956731;28;20399;-80
2022/02/12 07:15:45;;;;;;;11.93;8.05;;;0.40;99.90;;;;;;4956500;28;20034;-80
2022/02/12 07:18:12;;;;;;;11.88;8.18;;;0.50;99.90;;;;;;4956143;28;20465;-82
2022/02/12 07:20:38;;;;;;;17.92;8.70;;;0.60;99.90;;;;;;4956256;28;20455;-82
2022/02/12 07:23:03;;;;;;;13.98;7.88;;;0.60;99.90;;;;;;4955771;29;20027;-82
2022/02/12 07:25:29;;;;;;;13.07;8.38;;;0.80;99.90;;;;;;4955824;28;20035;-82
2022/02/12 07:27:56;;;;;;;14.07;7.95;;;0.90;99.90;;;;;;4956099;28;20025;-81
2022/02/12 07:30:25;;;;;;;11.95;8.45;;;0.40;99.90;;;;;;4956881;28;20488;-84
2022/02/12 07:32:51;;;;;;;13.30;8.52;;;0.50;99.90;;;;;;4940101;29;20396;-82
2022/02/12 07:35:18;;;;;;;14.27;8.77;;;1.00;99.90;;;;;;4955528;28;20039;-82
2022/02/12 07:37:47;;;;;;;12.65;8.90;;;0.70;99.90;;;;;;4955349;28;20046;-82
2022/02/12 07:40:14;;;;;;;16.58;10.13;;;0.90;99.90;;;;;;4955683;28;20031;-82
2022/02/12 07:42:40;;;;;;;12.00;8.68;;;0.80;99.90;;;;;;4955526;28;20030;-82
2022/02/12 07:45:06;;;;;;;12.05;8.48;;;0.90;99.90;;;;;;4955669;28;20035;-82
2022/02/12 07:47:31;;;;;;;11.02;8.52;;;1.00;99.90;;;;;;4955326;28;20031;-82
2022/02/12 07:49:57;;;;;;;11.65;8.15;;;1.20;99.90;;;;;;4955610;29;20043;-82
2022/02/12 07:52:23;;;;;;;13.95;8.85;;;1.20;99.90;;;;;;4955472;28;20071;-82
2022/02/12 07:54:48;;;;;;;14.07;8.38;;;1.30;99.90;;;;;;4955396;28;20042;-82
2022/02/12 07:57:14;;;;;;;12.80;8.52;;;1.40;99.90;;;;;;4955117;28;20027;-82
2022/02/12 07:59:40;;;;;;;12.23;8.60;;;1.40;99.90;;;;;;4955803;28;20062;-82
2022/02/12 08:02:07;;;;;;;13.20;7.80;;;1.70;99.90;;;;;;4955110;29;20019;-82
2022/02/12 08:04:33;;;;;;;13.50;8.15;;;1.80;99.90;;;;;;4956739;28;20522;-81
2022/02/12 08:09:43;;;;;;;13.45;7.55;;;2.80;99.90;;;;;;4954817;28;20039;-81
2022/02/12 08:12:13;;;;;;;14.55;8.20;;;2.50;99.90;;;;;;4955695;28;20027;-82
2022/02/12 08:15:05;;;;;;;9.98;6.82;;;3.80;99.90;;;;;;4940318;28;20031;-82
2022/02/12 08:17:31;;;;;;;10.05;6.63;;;6.60;99.90;;;;;;4951281;28;20047;-82
2022/02/12 08:19:58;;;;;;;9.50;6.70;;;7.70;99.90;;;;;;4954283;28;20194;-82
2022/02/12 08:22:23;;;;;;;9.13;7.05;;;10.10;99.90;;;;;;4955458;28;20035;-82
2022/02/12 08:24:49;;;;;;;11.60;6.60;;;12.40;99.90;;;;;;4955107;28;20023;-82
2022/02/12 08:27:15;;;;;;;13.00;6.72;;;13.10;99.90;;;;;;4954585;28;20027;-82
2022/02/12 08:29:42;;;;;;;7.97;6.50;;;12.90;99.90;;;;;;4955701;28;20035;-83
2022/02/12 08:32:08;;;;;;;9.70;6.63;;;13.90;99.90;;;;;;4953750;28;20110;-82
2022/02/12 08:34:35;;;;;;;9.40;6.90;;;15.20;99.90;;;;;;4954883;28;20060;-83
2022/02/12 08:37:01;;;;;;;8.95;6.78;;;15.80;99.90;;;;;;4954858;28;20034;-83
2022/02/12 08:39:27;;;;;;;10.73;6.97;;;15.20;99.90;;;;;;4955411;28;20054;-82
2022/02/12 08:41:53;;;;;;;11.10;6.90;;;15.40;99.90;;;;;;4954522;28;20047;-83
2022/02/12 08:44:19;;;;;;;11.48;6.72;;;15.70;99.90;;;;;;4954484;28;20031;-83
2022/02/12 08:46:45;;;;;;;7.93;6.38;;;15.40;99.90;;;;;;4953814;28;20035;-82
2022/02/12 08:49:12;;;;;;;14.32;7.38;;;15.80;99.90;;;;;;4954527;28;20043;-83
2022/02/12 08:51:39;;;;;;;11.35;7.95;;;15.80;99.90;;;;;;4954571;28;20445;-82
2022/02/12 08:54:09;;;;;;;11.07;7.60;;;15.40;99.90;;;;;;4954502;28;20031;-82
2022/02/12 08:56:37;;;;;;;10.70;6.93;;;16.00;99.90;;;;;;4939102;28;20061;-83
2022/02/12 08:59:03;;;;;;;10.80;7.80;;;16.90;99.90;;;;;;4953813;29;20027;-83
2022/02/12 09:01:29;;;;;;;12.13;7.22;;;17.50;99.90;;;;;;4954596;28;20035;-83
2022/02/12 09:03:56;;;;;;;10.48;6.82;;;18.30;99.90;;;;;;4954340;28;20019;-83
2022/02/12 09:06:21;;;;;;;13.32;7.25;;;18.70;99.90;;;;;;4954386;28;20050;-83
2022/02/12 09:08:58;;;;;;;11.02;7.50;;;18.80;99.90;;;;;;4954063;28;20035;-83
2022/02/12 09:11:27;;;;;;;11.52;6.50;;;19.70;99.90;;;;;;4954778;28;20444;-84
2022/02/12 09:13:54;;;;;;;14.18;8.32;;;20.30;99.90;;;;;;4953384;29;20031;-83
2022/02/12 09:16:22;;;;;;;13.13;7.82;;;20.60;99.90;;;;;;4953398;28;20488;-83
2022/02/12 09:18:48;;;;;;;12.18;7.78;;;20.90;99.90;;;;;;4954516;28;20023;-83
2022/02/12 09:21:14;;;;;;;11.95;7.85;;;21.30;99.90;;;;;;4953691;28;20538;-84
2022/02/12 09:23:40;;;;;;;12.40;8.77;;;21.60;99.90;;;;;;4954002;28;20554;-84
2022/02/12 09:26:06;;;;;;;12.75;8.30;;;21.70;99.90;;;;;;4953787;29;20067;-83
2022/02/12 09:28:31;;;;;;;10.30;8.18;;;21.90;99.90;;;;;;4953267;28;20480;-84
2022/02/12 09:30:57;;;;;;;11.88;9.15;;;22.40;99.90;;;;;;4954027;28;20121;-83
2022/02/12 09:33:23;;;;;;;10.60;8.68;;;22.60;99.90;;;;;;4954829;28;20070;-85
2022/02/12 09:35:53;;;;;;;11.13;8.80;;;23.10;99.90;;;;;;4954408;28;20035;-85
2022/02/12 09:38:20;;;;;;;9.55;7.95;;;23.90;99.90;;;;;;4954448;28;20043;-84
2022/02/12 09:40:46;;;;;;;11.35;8.35;;;24.10;99.90;;;;;;4953181;28;20388;-84
2022/02/12 09:43:12;;;;;;;11.48;8.90;;;23.30;99.90;;;;;;4953577;28;20041;-85
2022/02/12 09:46:10;;;;;;;12.93;9.43;;;22.30;99.90;;;;;;4954374;28;20027;-84
2022/02/12 09:48:35;;;;;;;9.90;8.70;;;23.00;99.90;;;;;;4941910;28;20512;-84
2022/02/12 09:51:03;;;;;;;12.00;9.82;;;22.60;99.90;;;;;;4954179;28;20035;-85
2022/02/12 09:53:30;;;;;;;12.45;9.68;;;24.50;99.90;;;;;;4953856;28;20111;-85
2022/02/12 09:55:56;;;;;;;13.23;9.57;;;25.10;99.90;;;;;;4953437;29;20045;-84
2022/02/12 09:58:22;;;;;;;13.07;10.55;;;24.60;99.90;;;;;;4953356;28;20030;-85
2022/02/12 10:00:48;;;;;;;15.05;10.13;;;24.90;99.90;;;;;;4953997;28;20042;-85
2022/02/12 10:03:14;;;;;;;12.20;10.93;;;24.00;99.90;;;;;;4953579;28;20031;-85
2022/02/12 10:05:56;;;;;;;14.57;13.00;;;23.70;99.90;;;;;;4953875;28;20038;-85
2022/02/12 10:08:22;;;;;;;15.45;12.60;;;24.20;99.90;;;;;;4953683;28;20507;-84
2022/02/12 10:10:50;;;;;;;18.67;13.25;;;23.90;99.90;;;;;;4951178;29;20035;-85
2022/02/12 10:13:19;;;;;;;15.68;12.95;;;24.70;99.90;;;;;;4953298;28;20023;-85
2022/02/12 10:15:59;;;;;;;13.60;12.10;;;25.10;99.90;;;;;;4953905;28;20403;-85
2022/02/12 10:18:35;;;;;;;12.57;11.27;;;25.50;99.90;;;;;;4953773;28;20023;-85
2022/02/12 10:21:01;;;;;;;13.00;11.60;;;24.90;99.90;;;;;;4953523;28;20070;-85
2022/02/12 10:23:32;;;;;;;15.98;10.95;;;22.90;99.90;;;;;;4954038;28;20070;-84
2022/02/12 10:26:03;;;;;;;15.88;11.52;;;23.90;99.90;;;;;;4952708;28;20027;-85
2022/02/12 10:28:32;;;;;;;14.30;10.55;;;24.70;99.90;;;;;;4953558;28;20511;-85
2022/02/12 10:30:58;;;;;;;14.63;11.40;;;25.90;99.90;;;;;;4953459;28;20125;-85
2022/02/12 10:33:29;;;;;;;14.77;10.20;;;26.60;99.90;;;;;;4953346;28;20039;-85
2022/02/12 10:36:00;;;;;;;11.25;9.18;;;26.90;99.90;;;;;;4953626;28;20110;-85
2022/02/12 10:38:29;;;;;;;9.70;8.70;;;26.40;99.90;;;;;;4953624;28;20090;-85
2022/02/12 10:41:09;;;;;;;10.13;8.95;;;26.90;99.90;;;;;;4953250;28;20098;-85
2022/02/12 10:43:39;;;;;;;14.45;11.70;;;26.60;99.90;;;;;;4958426;28;20058;-85
2022/02/12 10:46:06;;;;;;;15.38;12.48;;;27.40;99.90;;;;;;4951510;28;20062;-85
2022/02/12 10:48:37;;;;;;;12.45;10.68;;;27.00;99.90;;;;;;4952627;28;20534;-86
2022/02/12 10:51:14;;;;;;;12.00;10.40;;;27.60;99.90;;;;;;4944882;28;20035;-87
2022/02/12 10:54:06;;;;;;;12.18;9.82;;;27.90;99.90;;;;;;4942361;28;20023;-85
2022/02/12 10:56:46;;;;;;;12.48;10.85;;;27.40;99.90;;;;;;4956473;28;20031;-86
2022/02/12 10:59:13;;;;;;;11.73;9.60;;;26.70;99.90;;;;;;4952516;28;20081;-86
2022/02/12 11:01:40;;;;;;;11.27;10.18;;;26.50;99.90;;;;;;4956556;28;20042;-86
2022/02/12 11:04:07;;;;;;;10.80;9.70;;;26.10;99.90;;;;;;4956395;28;20031;-84
2022/02/12 11:06:35;;;;;;;11.23;9.57;;;25.60;99.90;;;;;;4956344;28;20404;-92
2022/02/12 11:09:02;;;;;;;11.05;9.15;;;26.20;99.90;;;;;;4956753;28;20480;-87
2022/02/12 11:11:30;;;;;;;9.73;8.77;;;25.60;99.90;;;;;;4956951;28;20039;-90
2022/02/12 11:13:58;;;;;;;10.57;9.10;;;25.50;99.90;;;;;;4956312;29;20030;-90
2022/02/12 11:16:24;;;;;;;11.75;9.18;;;26.50;99.90;;;;;;4958381;28;20035;-90
2022/02/12 11:18:51;;;;;;;9.43;8.45;;;26.50;99.90;;;;;;4956292;28;20054;-89
2022/02/12 11:21:18;;;;;;;10.25;9.07;;;26.80;99.90;;;;;;4956697;28;20519;-90
2022/02/12 11:23:59;;;;;;;11.13;9.95;;;26.60;99.90;;;;;;4956785;28;20035;-90
2022/02/12 11:26:24;;;;;;;12.50;9.90;;;26.70;99.90;;;;;;4957326;28;20502;-91
2022/02/12 11:28:50;;;;;;;11.13;9.88;;;27.00;99.90;;;;;;4957432;28;20043;-87
2022/02/12 11:31:27;;;;;;;10.80;9.70;;;27.20;99.90;;;;;;4956522;28;20034;-87
2022/02/12 11:34:17;;;;;;;12.98;10.82;;;26.60;99.90;;;;;;4957800;28;20447;-90
2022/02/12 11:36:46;;;;;;;12.75;10.07;;;26.50;99.90;;;;;;4956349;28;20109;-90
2022/02/12 11:39:27;;;;;;;10.57;9.57;;;26.40;99.90;;;;;;4955395;28;20027;-89
2022/02/12 11:42:01;;;;;;;10.30;9.35;;;26.70;99.90;;;;;;4957722;28;20030;-90
2022/02/12 11:44:45;;;;;;;10.05;9.05;;;27.10;99.90;;;;;;4956328;28;20546;-90
2022/02/12 11:47:12;;;;;;;10.20;9.30;;;27.10;99.90;;;;;;4951735;28;20019;-87
2022/02/12 11:49:40;;;;;;;11.90;9.23;;;26.80;99.90;;;;;;4955642;28;20043;-86
2022/02/12 11:52:16;;;;;;;10.35;9.35;;;26.10;99.90;;;;;;4956280;28;20027;-90
2022/02/12 11:54:59;;;;;;;10.45;9.32;;;26.70;99.90;;;;;;4940671;29;20435;-87
2022/02/12 11:57:27;;;;;;;10.48;9.38;;;25.40;99.90;;;;;;4955401;28;20027;-86
2022/02/12 12:00:03;;;;;;;10.10;9.00;;;24.80;99.90;;;;;;4955692;28;20066;-87
2022/02/12 12:02:38;;;;;;;10.20;8.93;;;24.80;99.90;;;;;;4955217;28;20043;-87
2022/02/12 12:05:15;;;;;;;9.57;8.38;;;24.50;99.90;;;;;;4950299;29;20035;-88
2022/02/12 12:08:17;;;;;;;9.50;8.60;;;24.30;99.90;;;;;;4956569;28;20050;-89
2022/02/12 12:11:06;;;;;;;8.60;7.72;;;22.90;99.90;;;;;;4952133;29;20039;-87
2022/02/12 12:13:37;;;;;;;8.30;7.50;;;23.30;99.90;;;;;;4955933;28;20078;-87
2022/02/12 12:16:16;;;;;;;8.55;7.45;;;23.00;99.90;;;;;;4955327;28;20046;-85
2022/02/12 12:18:46;;;;;;;8.63;7.78;;;22.90;99.90;;;;;;4955370;28;20027;-86
2022/02/12 12:21:15;;;;;;;8.50;7.70;;;22.80;99.90;;;;;;4954865;28;20138;-86
2022/02/12 12:23:54;;;;;;;8.57;7.53;;;22.10;99.90;;;;;;4955395;28;20066;-85
2022/02/12 12:26:20;;;;;;;7.88;7.18;;;21.60;99.90;;;;;;4954902;28;20102;-86
2022/02/12 12:30:44;;;;;;;8.82;7.70;;;22.10;99.90;;;;;;4954278;28;21990;-87
2022/02/12 12:31:32;;;;;;;9.25;8.25;;;21.30;99.90;;;;;;4954332;28;20047;-87
2022/02/12 12:34:07;;;;;;;9.10;8.00;;;20.70;99.90;;;;;;4954796;28;20439;-87
2022/02/12 12:36:38;;;;;;;10.13;7.70;;;20.40;99.90;;;;;;4939900;29;20023;-87
2022/02/12 12:39:12;;;;;;;9.10;8.05;;;20.30;99.90;;;;;;4955479;28;20032;-87
2022/02/12 12:41:39;;;;;;;10.02;7.80;;;20.30;99.90;;;;;;4939568;28;20093;-87
2022/02/12 12:44:14;;;;;;;8.45;7.55;;;20.20;99.90;;;;;;4950048;29;20126;-88
2022/02/12 12:46:49;;;;;;;8.98;8.20;;;20.40;99.90;;;;;;4954711;28;20506;-88
2022/02/12 12:49:39;;;;;;;8.82;7.88;;;20.00;99.90;;;;;;4954252;28;20032;-87
2022/02/12 12:52:06;;;;;;;8.93;8.02;;;19.80;99.90;;;;;;4954592;28;20035;-87
2022/02/12 12:54:39;;;;;;;10.00;7.82;;;19.30;99.90;;;;;;4939505;29;20139;-87
2022/02/12 12:57:05;;;;;;;9.27;8.15;;;19.60;99.90;;;;;;4954530;28;20027;-87